sensor_id;sensor_type;location;lat;lon;timestamp;P1;durP1;ratioP1;P2;durP2;ratioP2
75614;SDS011;64199;48.578;-4.520;2023-03-31T00:02:24;27.17;;;6.72;;
75614;SDS011;64199;48.578;-4.520;2023-03-31T00:04:54;21.25;;;5.80;;
75614;SDS011;64199;48.578;-4.520;2023-03-31T00:07:23;30.17;;;7.15;;
75614;SDS011;64199;48.578;-4.520;2023-03-31T00:09:50;23.35;;;6.28;;
75614;SDS011;64199;48.578;-4.520;2023-03-31T00:12:19;22.38;;;6.05;;
75614;SDS011;64199;48.578;-4.520;2023-03-31T00:14:45;20.17;;;6.20;;
75614;SDS011;64199;48.578;-4.520;2023-03-31T00:17:11;22.70;;;5.85;;
75614;SDS011;64199;48.578;-4.520;2023-03-31T00:19:37;23.58;;;6.50;;
75614;SDS011;64199;48.578;-4.520;2023-03-31T00:22:05;22.35;;;6.75;;
75614;SDS011;64199;48.578;-4.520;2023-03-31T00:24:32;21.48;;;5.63;;
75614;SDS011;64199;48.578;-4.520;2023-03-31T00:26:59;25.75;;;6.25;;
75614;SDS011;64199;48.578;-4.520;2023-03-31T00:29:26;24.10;;;6.32;;
75614;SDS011;64199;48.578;-4.520;2023-03-31T00:31:52;21.50;;;6.22;;
75614;SDS011;64199;48.578;-4.520;2023-03-31T00:34:19;22.52;;;6.10;;
75614;SDS011;64199;48.578;-4.520;2023-03-31T00:36:45;22.92;;;5.63;;
75614;SDS011;64199;48.578;-4.520;2023-03-31T00:39:12;22.80;;;6.15;;
75614;SDS011;64199;48.578;-4.520;2023-03-31T00:41:40;20.50;;;5.30;;
75614;SDS011;64199;48.578;-4.520;2023-03-31T00:47:19;17.25;;;4.63;;
75614;SDS011;64199;48.578;-4.520;2023-03-31T00:49:38;15.73;;;5.35;;
75614;SDS011;64199;48.578;-4.520;2023-03-31T00:52:14;20.08;;;4.28;;
75614;SDS011;64199;48.578;-4.520;2023-03-31T00:54:43;20.75;;;4.95;;
75614;SDS011;64199;48.578;-4.520;2023-03-31T00:57:10;16.48;;;5.13;;
75614;SDS011;64199;48.578;-4.520;2023-03-31T00:59:39;14.20;;;4.25;;
75614;SDS011;64199;48.578;-4.520;2023-03-31T01:02:07;16.80;;;4.80;;
75614;SDS011;64199;48.578;-4.520;2023-03-31T01:04:36;17.90;;;4.63;;
75614;SDS011;64199;48.578;-4.520;2023-03-31T01:07:12;11.70;;;3.80;;
75614;SDS011;64199;48.578;-4.520;2023-03-31T01:09:56;16.13;;;4.68;;
75614;SDS011;64199;48.578;-4.520;2023-03-31T01:12:24;20.33;;;4.97;;
75614;SDS011;64199;48.578;-4.520;2023-03-31T01:14:51;19.00;;;5.10;;
75614;SDS011;64199;48.578;-4.520;2023-03-31T01:17:18;17.35;;;4.82;;
75614;SDS011;64199;48.578;-4.520;2023-03-31T01:20:01;14.75;;;4.47;;
75614;SDS011;64199;48.578;-4.520;2023-03-31T01:30:42;19.95;;;4.75;;
75614;SDS011;64199;48.578;-4.520;2023-03-31T01:44:40;17.08;;;5.20;;
75614;SDS011;64199;48.578;-4.520;2023-03-31T01:47:24;14.65;;;4.18;;
75614;SDS011;64199;48.578;-4.520;2023-03-31T01:50:25;15.73;;;4.28;;
75614;SDS011;64199;48.578;-4.520;2023-03-31T01:52:58;20.75;;;5.10;;
75614;SDS011;64199;48.578;-4.520;2023-03-31T01:55:45;12.43;;;4.03;;
75614;SDS011;64199;48.578;-4.520;2023-03-31T01:58:25;12.05;;;4.32;;
75614;SDS011;64199;48.578;-4.520;2023-03-31T02:01:33;16.05;;;4.55;;
75614;SDS011;64199;48.578;-4.520;2023-03-31T02:04:14;15.70;;;4.57;;
75614;SDS011;64199;48.578;-4.520;2023-03-31T02:06:50;14.65;;;4.10;;
75614;SDS011;64199;48.578;-4.520;2023-03-31T02:09:24;13.95;;;3.95;;
75614;SDS011;64199;48.578;-4.520;2023-03-31T02:11:54;12.80;;;4.18;;
75614;SDS011;64199;48.578;-4.520;2023-03-31T02:14:25;18.92;;;4.63;;
75614;SDS011;64199;48.578;-4.520;2023-03-31T02:16:56;14.93;;;4.60;;
75614;SDS011;64199;48.578;-4.520;2023-03-31T02:19:24;15.30;;;3.97;;
75614;SDS011;64199;48.578;-4.520;2023-03-31T02:21:51;13.90;;;3.90;;
75614;SDS011;64199;48.578;-4.520;2023-03-31T02:24:19;14.07;;;3.93;;
75614;SDS011;64199;48.578;-4.520;2023-03-31T02:27:02;12.25;;;4.70;;
75614;SDS011;64199;48.578;-4.520;2023-03-31T02:29:31;13.77;;;3.90;;
75614;SDS011;64199;48.578;-4.520;2023-03-31T02:34:56;13.43;;;4.22;;
75614;SDS011;64199;48.578;-4.520;2023-03-31T02:37:24;18.58;;;4.45;;
75614;SDS011;64199;48.578;-4.520;2023-03-31T02:39:51;14.32;;;4.07;;
75614;SDS011;64199;48.578;-4.520;2023-03-31T02:44:45;15.70;;;4.20;;
75614;SDS011;64199;48.578;-4.520;2023-03-31T02:47:12;17.10;;;4.95;;
75614;SDS011;64199;48.578;-4.520;2023-03-31T02:49:41;13.48;;;4.15;;
75614;SDS011;64199;48.578;-4.520;2023-03-31T02:54:52;14.38;;;4.03;;
75614;SDS011;64199;48.578;-4.520;2023-03-31T03:03:28;17.52;;;5.25;;
75614;SDS011;64199;48.578;-4.520;2023-03-31T03:09:06;18.30;;;4.88;;
75614;SDS011;64199;48.578;-4.520;2023-03-31T03:14:15;17.48;;;4.60;;
75614;SDS011;64199;48.578;-4.520;2023-03-31T03:16:43;15.50;;;3.92;;
75614;SDS011;64199;48.578;-4.520;2023-03-31T03:19:16;20.77;;;4.93;;
75614;SDS011;64199;48.578;-4.520;2023-03-31T03:21:42;16.95;;;4.60;;
75614;SDS011;64199;48.578;-4.520;2023-03-31T03:24:10;16.40;;;4.70;;
75614;SDS011;64199;48.578;-4.520;2023-03-31T03:26:36;14.88;;;4.32;;
75614;SDS011;64199;48.578;-4.520;2023-03-31T03:29:02;14.38;;;4.35;;
75614;SDS011;64199;48.578;-4.520;2023-03-31T03:31:28;18.83;;;5.72;;
75614;SDS011;64199;48.578;-4.520;2023-03-31T03:33:54;17.60;;;5.03;;
75614;SDS011;64199;48.578;-4.520;2023-03-31T03:36:21;24.30;;;5.18;;
75614;SDS011;64199;48.578;-4.520;2023-03-31T03:38:47;20.17;;;4.43;;
75614;SDS011;64199;48.578;-4.520;2023-03-31T03:41:13;19.27;;;4.00;;
75614;SDS011;64199;48.578;-4.520;2023-03-31T03:43:40;12.60;;;4.00;;
75614;SDS011;64199;48.578;-4.520;2023-03-31T03:46:06;18.83;;;4.72;;
75614;SDS011;64199;48.578;-4.520;2023-03-31T03:48:33;13.63;;;3.45;;
75614;SDS011;64199;48.578;-4.520;2023-03-31T03:50:59;17.48;;;4.50;;
75614;SDS011;64199;48.578;-4.520;2023-03-31T03:53:26;17.92;;;5.05;;
75614;SDS011;64199;48.578;-4.520;2023-03-31T03:55:52;14.27;;;4.55;;
75614;SDS011;64199;48.578;-4.520;2023-03-31T03:58:18;15.63;;;4.95;;
75614;SDS011;64199;48.578;-4.520;2023-03-31T04:00:44;19.10;;;4.78;;
75614;SDS011;64199;48.578;-4.520;2023-03-31T04:03:11;18.42;;;4.60;;
75614;SDS011;64199;48.578;-4.520;2023-03-31T04:05:37;19.85;;;4.82;;
75614;SDS011;64199;48.578;-4.520;2023-03-31T04:08:03;13.15;;;4.60;;
75614;SDS011;64199;48.578;-4.520;2023-03-31T04:10:30;16.55;;;5.13;;
75614;SDS011;64199;48.578;-4.520;2023-03-31T04:12:56;15.13;;;5.03;;
75614;SDS011;64199;48.578;-4.520;2023-03-31T04:15:22;16.08;;;4.75;;
75614;SDS011;64199;48.578;-4.520;2023-03-31T04:17:48;16.48;;;5.47;;
75614;SDS011;64199;48.578;-4.520;2023-03-31T04:20:18;21.67;;;5.30;;
75614;SDS011;64199;48.578;-4.520;2023-03-31T04:22:45;17.08;;;5.03;;
75614;SDS011;64199;48.578;-4.520;2023-03-31T04:25:14;16.20;;;4.65;;
75614;SDS011;64199;48.578;-4.520;2023-03-31T04:27:42;20.08;;;4.88;;
75614;SDS011;64199;48.578;-4.520;2023-03-31T04:30:12;13.48;;;4.20;;
75614;SDS011;64199;48.578;-4.520;2023-03-31T04:32:47;13.70;;;4.60;;
75614;SDS011;64199;48.578;-4.520;2023-03-31T04:35:17;18.42;;;5.15;;
75614;SDS011;64199;48.578;-4.520;2023-03-31T04:37:47;18.13;;;5.37;;
75614;SDS011;64199;48.578;-4.520;2023-03-31T04:40:15;15.63;;;4.38;;
75614;SDS011;64199;48.578;-4.520;2023-03-31T04:42:44;19.05;;;4.93;;
75614;SDS011;64199;48.578;-4.520;2023-03-31T04:45:10;16.88;;;4.68;;
75614;SDS011;64199;48.578;-4.520;2023-03-31T04:47:37;17.08;;;5.22;;
75614;SDS011;64199;48.578;-4.520;2023-03-31T04:50:03;19.63;;;4.65;;
75614;SDS011;64199;48.578;-4.520;2023-03-31T04:52:29;16.98;;;5.28;;
75614;SDS011;64199;48.578;-4.520;2023-03-31T04:54:55;17.50;;;4.68;;
75614;SDS011;64199;48.578;-4.520;2023-03-31T04:57:21;19.73;;;5.50;;
75614;SDS011;64199;48.578;-4.520;2023-03-31T04:59:47;20.52;;;5.03;;
75614;SDS011;64199;48.578;-4.520;2023-03-31T05:02:13;16.67;;;4.70;;
75614;SDS011;64199;48.578;-4.520;2023-03-31T05:04:45;20.02;;;4.88;;
75614;SDS011;64199;48.578;-4.520;2023-03-31T05:07:11;13.00;;;4.22;;
75614;SDS011;64199;48.578;-4.520;2023-03-31T05:09:37;19.75;;;4.68;;
75614;SDS011;64199;48.578;-4.520;2023-03-31T05:12:03;20.63;;;4.85;;
75614;SDS011;64199;48.578;-4.520;2023-03-31T05:14:29;15.57;;;4.53;;
75614;SDS011;64199;48.578;-4.520;2023-03-31T05:16:55;21.08;;;5.72;;
75614;SDS011;64199;48.578;-4.520;2023-03-31T05:19:23;21.30;;;4.78;;
75614;SDS011;64199;48.578;-4.520;2023-03-31T05:21:49;15.48;;;4.20;;
75614;SDS011;64199;48.578;-4.520;2023-03-31T05:24:15;17.75;;;4.70;;
75614;SDS011;64199;48.578;-4.520;2023-03-31T05:26:41;16.10;;;4.25;;
75614;SDS011;64199;48.578;-4.520;2023-03-31T05:29:12;14.07;;;4.30;;
75614;SDS011;64199;48.578;-4.520;2023-03-31T05:31:41;16.05;;;4.18;;
75614;SDS011;64199;48.578;-4.520;2023-03-31T05:34:07;19.05;;;4.50;;
75614;SDS011;64199;48.578;-4.520;2023-03-31T05:36:33;12.50;;;3.58;;
75614;SDS011;64199;48.578;-4.520;2023-03-31T05:38:59;10.18;;;3.30;;
75614;SDS011;64199;48.578;-4.520;2023-03-31T05:41:25;11.82;;;3.72;;
75614;SDS011;64199;48.578;-4.520;2023-03-31T05:43:52;12.68;;;3.78;;
75614;SDS011;64199;48.578;-4.520;2023-03-31T05:46:17;13.68;;;3.58;;
75614;SDS011;64199;48.578;-4.520;2023-03-31T05:48:43;11.60;;;3.45;;
75614;SDS011;64199;48.578;-4.520;2023-03-31T05:51:09;11.02;;;3.30;;
75614;SDS011;64199;48.578;-4.520;2023-03-31T05:53:35;9.00;;;3.53;;
75614;SDS011;64199;48.578;-4.520;2023-03-31T05:56:02;12.35;;;3.58;;
75614;SDS011;64199;48.578;-4.520;2023-03-31T05:58:32;11.00;;;3.40;;
75614;SDS011;64199;48.578;-4.520;2023-03-31T06:01:06;9.00;;;2.92;;
75614;SDS011;64199;48.578;-4.520;2023-03-31T06:03:44;12.18;;;3.38;;
75614;SDS011;64199;48.578;-4.520;2023-03-31T06:06:10;11.95;;;3.83;;
75614;SDS011;64199;48.578;-4.520;2023-03-31T06:08:40;13.18;;;3.60;;
75614;SDS011;64199;48.578;-4.520;2023-03-31T06:11:09;11.13;;;3.42;;
75614;SDS011;64199;48.578;-4.520;2023-03-31T06:13:37;10.50;;;3.40;;
75614;SDS011;64199;48.578;-4.520;2023-03-31T06:16:04;9.85;;;3.53;;
75614;SDS011;64199;48.578;-4.520;2023-03-31T06:18:31;11.48;;;3.63;;
75614;SDS011;64199;48.578;-4.520;2023-03-31T06:20:59;12.40;;;4.07;;
75614;SDS011;64199;48.578;-4.520;2023-03-31T06:23:25;10.43;;;3.33;;
75614;SDS011;64199;48.578;-4.520;2023-03-31T06:25:51;9.75;;;3.50;;
75614;SDS011;64199;48.578;-4.520;2023-03-31T06:28:18;9.60;;;3.22;;
75614;SDS011;64199;48.578;-4.520;2023-03-31T06:30:45;9.23;;;3.03;;
75614;SDS011;64199;48.578;-4.520;2023-03-31T06:33:11;11.00;;;3.22;;
75614;SDS011;64199;48.578;-4.520;2023-03-31T06:35:37;9.90;;;3.00;;
75614;SDS011;64199;48.578;-4.520;2023-03-31T06:38:05;13.65;;;3.75;;
75614;SDS011;64199;48.578;-4.520;2023-03-31T06:40:31;9.68;;;3.50;;
75614;SDS011;64199;48.578;-4.520;2023-03-31T06:42:58;9.32;;;2.97;;
75614;SDS011;64199;48.578;-4.520;2023-03-31T06:45:24;10.15;;;3.38;;
75614;SDS011;64199;48.578;-4.520;2023-03-31T06:47:50;11.77;;;3.42;;
75614;SDS011;64199;48.578;-4.520;2023-03-31T06:50:16;10.85;;;2.90;;
75614;SDS011;64199;48.578;-4.520;2023-03-31T06:52:42;10.48;;;3.42;;
75614;SDS011;64199;48.578;-4.520;2023-03-31T06:55:09;11.57;;;3.63;;
75614;SDS011;64199;48.578;-4.520;2023-03-31T06:57:37;9.40;;;3.05;;
75614;SDS011;64199;48.578;-4.520;2023-03-31T07:00:03;9.02;;;3.20;;
75614;SDS011;64199;48.578;-4.520;2023-03-31T07:02:29;10.65;;;3.08;;
75614;SDS011;64199;48.578;-4.520;2023-03-31T07:04:55;13.20;;;3.42;;
75614;SDS011;64199;48.578;-4.520;2023-03-31T07:07:21;15.60;;;3.53;;
75614;SDS011;64199;48.578;-4.520;2023-03-31T07:09:47;9.00;;;2.72;;
75614;SDS011;64199;48.578;-4.520;2023-03-31T07:12:13;10.23;;;3.17;;
75614;SDS011;64199;48.578;-4.520;2023-03-31T07:14:39;10.68;;;2.90;;
75614;SDS011;64199;48.578;-4.520;2023-03-31T07:17:05;13.90;;;3.35;;
75614;SDS011;64199;48.578;-4.520;2023-03-31T07:19:31;10.88;;;3.47;;
75614;SDS011;64199;48.578;-4.520;2023-03-31T07:22:02;10.82;;;3.55;;
75614;SDS011;64199;48.578;-4.520;2023-03-31T07:24:28;7.88;;;3.15;;
75614;SDS011;64199;48.578;-4.520;2023-03-31T07:26:55;11.85;;;3.47;;
75614;SDS011;64199;48.578;-4.520;2023-03-31T07:29:22;8.77;;;3.00;;
75614;SDS011;64199;48.578;-4.520;2023-03-31T07:31:48;7.88;;;2.85;;
75614;SDS011;64199;48.578;-4.520;2023-03-31T07:34:14;10.73;;;2.70;;
75614;SDS011;64199;48.578;-4.520;2023-03-31T07:36:41;9.95;;;3.20;;
75614;SDS011;64199;48.578;-4.520;2023-03-31T07:39:07;11.95;;;2.80;;
75614;SDS011;64199;48.578;-4.520;2023-03-31T07:41:33;11.05;;;3.30;;
75614;SDS011;64199;48.578;-4.520;2023-03-31T07:44:00;18.40;;;2.90;;
75614;SDS011;64199;48.578;-4.520;2023-03-31T07:46:27;9.75;;;2.78;;
75614;SDS011;64199;48.578;-4.520;2023-03-31T07:48:53;9.80;;;3.15;;
75614;SDS011;64199;48.578;-4.520;2023-03-31T07:51:22;9.57;;;3.40;;
75614;SDS011;64199;48.578;-4.520;2023-03-31T07:53:50;7.95;;;2.60;;
75614;SDS011;64199;48.578;-4.520;2023-03-31T07:56:21;12.32;;;3.13;;
75614;SDS011;64199;48.578;-4.520;2023-03-31T07:58:48;9.38;;;3.20;;
75614;SDS011;64199;48.578;-4.520;2023-03-31T08:01:16;9.45;;;3.28;;
75614;SDS011;64199;48.578;-4.520;2023-03-31T08:03:43;13.85;;;3.70;;
75614;SDS011;64199;48.578;-4.520;2023-03-31T08:06:10;9.82;;;2.65;;
75614;SDS011;64199;48.578;-4.520;2023-03-31T08:08:41;9.70;;;2.97;;
75614;SDS011;64199;48.578;-4.520;2023-03-31T08:11:07;11.88;;;3.25;;
75614;SDS011;64199;48.578;-4.520;2023-03-31T08:13:34;12.63;;;3.75;;
75614;SDS011;64199;48.578;-4.520;2023-03-31T08:16:00;12.38;;;3.42;;
75614;SDS011;64199;48.578;-4.520;2023-03-31T08:18:26;12.52;;;4.10;;
75614;SDS011;64199;48.578;-4.520;2023-03-31T08:20:52;14.48;;;3.72;;
75614;SDS011;64199;48.578;-4.520;2023-03-31T08:23:18;11.13;;;3.00;;
75614;SDS011;64199;48.578;-4.520;2023-03-31T08:25:44;8.77;;;2.95;;
75614;SDS011;64199;48.578;-4.520;2023-03-31T08:28:10;9.82;;;3.30;;
75614;SDS011;64199;48.578;-4.520;2023-03-31T08:30:38;10.83;;;3.53;;
75614;SDS011;64199;48.578;-4.520;2023-03-31T08:33:05;11.88;;;3.17;;
75614;SDS011;64199;48.578;-4.520;2023-03-31T08:35:32;15.13;;;3.88;;
75614;SDS011;64199;48.578;-4.520;2023-03-31T08:38:01;9.85;;;3.33;;
75614;SDS011;64199;48.578;-4.520;2023-03-31T08:40:27;12.63;;;3.08;;
75614;SDS011;64199;48.578;-4.520;2023-03-31T08:42:56;10.63;;;3.30;;
75614;SDS011;64199;48.578;-4.520;2023-03-31T08:45:24;14.40;;;3.67;;
75614;SDS011;64199;48.578;-4.520;2023-03-31T08:48:06;10.35;;;3.65;;
75614;SDS011;64199;48.578;-4.520;2023-03-31T08:50:35;10.43;;;3.45;;
75614;SDS011;64199;48.578;-4.520;2023-03-31T08:55:53;9.00;;;3.03;;
75614;SDS011;64199;48.578;-4.520;2023-03-31T09:06:51;13.30;;;3.75;;
75614;SDS011;64199;48.578;-4.520;2023-03-31T09:09:24;8.65;;;2.72;;
75614;SDS011;64199;48.578;-4.520;2023-03-31T09:12:06;13.95;;;3.17;;
75614;SDS011;64199;48.578;-4.520;2023-03-31T09:17:21;10.73;;;3.40;;
75614;SDS011;64199;48.578;-4.520;2023-03-31T09:19:55;13.32;;;3.55;;
75614;SDS011;64199;48.578;-4.520;2023-03-31T09:22:37;11.63;;;3.28;;
75614;SDS011;64199;48.578;-4.520;2023-03-31T09:25:11;10.52;;;3.63;;
75614;SDS011;64199;48.578;-4.520;2023-03-31T09:27:44;12.27;;;3.63;;
75614;SDS011;64199;48.578;-4.520;2023-03-31T09:30:25;14.00;;;3.88;;
75614;SDS011;64199;48.578;-4.520;2023-03-31T09:35:41;9.00;;;3.10;;
75614;SDS011;64199;48.578;-4.520;2023-03-31T09:38:08;12.57;;;4.03;;
75614;SDS011;64199;48.578;-4.520;2023-03-31T09:40:36;10.73;;;3.25;;
75614;SDS011;64199;48.578;-4.520;2023-03-31T09:43:05;12.60;;;3.13;;
75614;SDS011;64199;48.578;-4.520;2023-03-31T09:45:53;21.08;;;3.95;;
75614;SDS011;64199;48.578;-4.520;2023-03-31T09:48:25;19.00;;;4.50;;
75614;SDS011;64199;48.578;-4.520;2023-03-31T09:50:56;19.83;;;5.32;;
75614;SDS011;64199;48.578;-4.520;2023-03-31T09:54:08;10.45;;;3.45;;
75614;SDS011;64199;48.578;-4.520;2023-03-31T09:56:34;18.27;;;3.65;;
75614;SDS011;64199;48.578;-4.520;2023-03-31T09:59:15;23.73;;;4.40;;
75614;SDS011;64199;48.578;-4.520;2023-03-31T10:01:51;15.77;;;3.85;;
75614;SDS011;64199;48.578;-4.520;2023-03-31T10:04:25;11.23;;;3.67;;
75614;SDS011;64199;48.578;-4.520;2023-03-31T10:06:57;10.02;;;3.75;;
75614;SDS011;64199;48.578;-4.520;2023-03-31T10:09:32;15.88;;;4.80;;
75614;SDS011;64199;48.578;-4.520;2023-03-31T10:12:05;11.98;;;3.63;;
75614;SDS011;64199;48.578;-4.520;2023-03-31T10:14:46;8.10;;;3.00;;
75614;SDS011;64199;48.578;-4.520;2023-03-31T10:17:16;14.15;;;3.97;;
75614;SDS011;64199;48.578;-4.520;2023-03-31T10:19:55;14.13;;;3.28;;
75614;SDS011;64199;48.578;-4.520;2023-03-31T10:25:06;13.60;;;4.15;;
75614;SDS011;64199;48.578;-4.520;2023-03-31T10:27:50;16.80;;;4.45;;
75614;SDS011;64199;48.578;-4.520;2023-03-31T10:30:32;12.80;;;3.20;;
75614;SDS011;64199;48.578;-4.520;2023-03-31T10:33:05;12.93;;;3.97;;
75614;SDS011;64199;48.578;-4.520;2023-03-31T10:35:38;12.73;;;4.07;;
75614;SDS011;64199;48.578;-4.520;2023-03-31T10:38:06;11.02;;;3.42;;
75614;SDS011;64199;48.578;-4.520;2023-03-31T10:40:36;12.73;;;3.88;;
75614;SDS011;64199;48.578;-4.520;2023-03-31T10:45:40;14.02;;;3.70;;
75614;SDS011;64199;48.578;-4.520;2023-03-31T10:48:44;11.43;;;3.53;;
75614;SDS011;64199;48.578;-4.520;2023-03-31T10:53:52;12.07;;;3.25;;
75614;SDS011;64199;48.578;-4.520;2023-03-31T11:22:36;11.75;;;3.30;;
75614;SDS011;64199;48.578;-4.520;2023-03-31T11:27:59;11.30;;;3.30;;
75614;SDS011;64199;48.578;-4.520;2023-03-31T11:30:31;9.98;;;3.15;;
75614;SDS011;64199;48.578;-4.520;2023-03-31T11:41:35;12.50;;;3.35;;
75614;SDS011;64199;48.578;-4.520;2023-03-31T11:44:15;12.85;;;3.30;;
75614;SDS011;64199;48.578;-4.520;2023-03-31T11:46:50;12.23;;;3.75;;
75614;SDS011;64199;48.578;-4.520;2023-03-31T11:49:38;13.13;;;3.42;;
75614;SDS011;64199;48.578;-4.520;2023-03-31T11:52:09;9.80;;;3.38;;
75614;SDS011;64199;48.578;-4.520;2023-03-31T11:55:01;9.10;;;2.90;;
75614;SDS011;64199;48.578;-4.520;2023-03-31T12:06:40;9.05;;;3.28;;
75614;SDS011;64199;48.578;-4.520;2023-03-31T12:09:32;11.23;;;3.30;;
75614;SDS011;64199;48.578;-4.520;2023-03-31T12:12:14;11.18;;;2.97;;
75614;SDS011;64199;48.578;-4.520;2023-03-31T12:14:50;9.68;;;3.20;;
75614;SDS011;64199;48.578;-4.520;2023-03-31T12:17:22;9.30;;;2.90;;
75614;SDS011;64199;48.578;-4.520;2023-03-31T12:19:52;8.95;;;2.72;;
75614;SDS011;64199;48.578;-4.520;2023-03-31T12:25:00;5.95;;;2.28;;
75614;SDS011;64199;48.578;-4.520;2023-03-31T12:27:35;8.02;;;2.80;;
75614;SDS011;64199;48.578;-4.520;2023-03-31T12:33:09;8.63;;;2.83;;
75614;SDS011;64199;48.578;-4.520;2023-03-31T12:38:21;10.40;;;2.70;;
75614;SDS011;64199;48.578;-4.520;2023-03-31T12:41:01;6.70;;;2.50;;
75614;SDS011;64199;48.578;-4.520;2023-03-31T12:46:39;11.10;;;3.03;;
75614;SDS011;64199;48.578;-4.520;2023-03-31T12:57:13;7.65;;;2.78;;
75614;SDS011;64199;48.578;-4.520;2023-03-31T13:00:32;8.13;;;2.83;;
75614;SDS011;64199;48.578;-4.520;2023-03-31T13:02:41;8.20;;;3.05;;
75614;SDS011;64199;48.578;-4.520;2023-03-31T13:08:12;5.55;;;2.13;;
75614;SDS011;64199;48.578;-4.520;2023-03-31T13:11:19;8.73;;;2.65;;
75614;SDS011;64199;48.578;-4.520;2023-03-31T13:16:45;7.07;;;2.67;;
75614;SDS011;64199;48.578;-4.520;2023-03-31T13:19:23;7.50;;;2.42;;
75614;SDS011;64199;48.578;-4.520;2023-03-31T13:21:57;8.57;;;2.15;;
75614;SDS011;64199;48.578;-4.520;2023-03-31T13:24:25;12.98;;;3.03;;
75614;SDS011;64199;48.578;-4.520;2023-03-31T13:26:53;10.38;;;2.53;;
75614;SDS011;64199;48.578;-4.520;2023-03-31T13:32:32;9.32;;;3.17;;
75614;SDS011;64199;48.578;-4.520;2023-03-31T13:57:16;10.32;;;2.92;;
75614;SDS011;64199;48.578;-4.520;2023-03-31T14:00:13;11.63;;;3.10;;
75614;SDS011;64199;48.578;-4.520;2023-03-31T14:02:56;9.60;;;3.08;;
75614;SDS011;64199;48.578;-4.520;2023-03-31T14:05:38;10.50;;;3.17;;
75614;SDS011;64199;48.578;-4.520;2023-03-31T14:10:37;8.43;;;2.58;;
75614;SDS011;64199;48.578;-4.520;2023-03-31T14:13:15;12.23;;;3.35;;
75614;SDS011;64199;48.578;-4.520;2023-03-31T14:15:55;10.63;;;3.25;;
75614;SDS011;64199;48.578;-4.520;2023-03-31T14:18:29;10.32;;;2.88;;
75614;SDS011;64199;48.578;-4.520;2023-03-31T14:21:07;15.23;;;3.58;;
75614;SDS011;64199;48.578;-4.520;2023-03-31T14:24:09;14.45;;;3.10;;
75614;SDS011;64199;48.578;-4.520;2023-03-31T14:29:18;14.98;;;3.72;;
75614;SDS011;64199;48.578;-4.520;2023-03-31T14:32:13;13.43;;;3.25;;
75614;SDS011;64199;48.578;-4.520;2023-03-31T14:35:02;13.30;;;3.00;;
75614;SDS011;64199;48.578;-4.520;2023-03-31T14:37:31;9.60;;;2.70;;
75614;SDS011;64199;48.578;-4.520;2023-03-31T14:39:59;14.80;;;3.20;;
75614;SDS011;64199;48.578;-4.520;2023-03-31T14:45:00;11.85;;;3.30;;
75614;SDS011;64199;48.578;-4.520;2023-03-31T14:47:28;10.45;;;2.80;;
75614;SDS011;64199;48.578;-4.520;2023-03-31T14:49:58;11.93;;;3.13;;
75614;SDS011;64199;48.578;-4.520;2023-03-31T14:52:28;13.95;;;3.17;;
75614;SDS011;64199;48.578;-4.520;2023-03-31T14:54:57;13.43;;;3.58;;
75614;SDS011;64199;48.578;-4.520;2023-03-31T14:57:28;14.98;;;4.55;;
75614;SDS011;64199;48.578;-4.520;2023-03-31T15:00:02;15.63;;;4.13;;
75614;SDS011;64199;48.578;-4.520;2023-03-31T15:02:35;11.85;;;3.53;;
75614;SDS011;64199;48.578;-4.520;2023-03-31T15:05:05;11.75;;;3.38;;
75614;SDS011;64199;48.578;-4.520;2023-03-31T15:07:34;17.15;;;3.80;;
75614;SDS011;64199;48.578;-4.520;2023-03-31T15:10:01;11.35;;;3.83;;
75614;SDS011;64199;48.578;-4.520;2023-03-31T15:12:30;15.25;;;3.70;;
75614;SDS011;64199;48.578;-4.520;2023-03-31T15:15:05;13.27;;;3.47;;
75614;SDS011;64199;48.578;-4.520;2023-03-31T15:17:38;12.17;;;2.80;;
75614;SDS011;64199;48.578;-4.520;2023-03-31T15:23:22;18.75;;;3.63;;
75614;SDS011;64199;48.578;-4.520;2023-03-31T15:26:02;13.63;;;3.42;;
75614;SDS011;64199;48.578;-4.520;2023-03-31T15:28:33;8.70;;;2.92;;
75614;SDS011;64199;48.578;-4.520;2023-03-31T15:31:04;14.65;;;3.47;;
75614;SDS011;64199;48.578;-4.520;2023-03-31T15:33:33;12.30;;;3.63;;
75614;SDS011;64199;48.578;-4.520;2023-03-31T15:36:05;13.32;;;3.47;;
75614;SDS011;64199;48.578;-4.520;2023-03-31T15:38:38;8.77;;;3.05;;
75614;SDS011;64199;48.578;-4.520;2023-03-31T15:41:14;12.80;;;3.20;;
75614;SDS011;64199;48.578;-4.520;2023-03-31T15:43:44;14.15;;;3.70;;
75614;SDS011;64199;48.578;-4.520;2023-03-31T15:46:23;14.07;;;3.72;;
75614;SDS011;64199;48.578;-4.520;2023-03-31T15:49:19;14.57;;;3.15;;
75614;SDS011;64199;48.578;-4.520;2023-03-31T15:51:47;13.13;;;3.28;;
75614;SDS011;64199;48.578;-4.520;2023-03-31T15:57:00;11.15;;;3.42;;
75614;SDS011;64199;48.578;-4.520;2023-03-31T15:59:52;13.07;;;3.17;;
75614;SDS011;64199;48.578;-4.520;2023-03-31T16:02:41;12.35;;;3.38;;
75614;SDS011;64199;48.578;-4.520;2023-03-31T16:05:20;8.70;;;3.00;;
75614;SDS011;64199;48.578;-4.520;2023-03-31T16:07:52;11.90;;;3.15;;
75614;SDS011;64199;48.578;-4.520;2023-03-31T16:10:18;10.10;;;2.92;;
75614;SDS011;64199;48.578;-4.520;2023-03-31T16:12:52;11.15;;;2.80;;
75614;SDS011;64199;48.578;-4.520;2023-03-31T16:15:20;12.95;;;3.58;;
75614;SDS011;64199;48.578;-4.520;2023-03-31T16:17:55;11.32;;;3.25;;
75614;SDS011;64199;48.578;-4.520;2023-03-31T16:20:38;9.90;;;2.88;;
75614;SDS011;64199;48.578;-4.520;2023-03-31T16:23:11;10.40;;;3.40;;
75614;SDS011;64199;48.578;-4.520;2023-03-31T16:25:39;15.38;;;3.45;;
75614;SDS011;64199;48.578;-4.520;2023-03-31T16:28:05;11.35;;;3.00;;
75614;SDS011;64199;48.578;-4.520;2023-03-31T16:30:37;12.05;;;3.38;;
75614;SDS011;64199;48.578;-4.520;2023-03-31T16:33:07;10.52;;;3.03;;
75614;SDS011;64199;48.578;-4.520;2023-03-31T16:38:08;9.23;;;3.03;;
75614;SDS011;64199;48.578;-4.520;2023-03-31T16:40:36;10.55;;;3.20;;
75614;SDS011;64199;48.578;-4.520;2023-03-31T16:45:44;11.57;;;3.58;;
75614;SDS011;64199;48.578;-4.520;2023-03-31T16:48:12;11.57;;;3.50;;
75614;SDS011;64199;48.578;-4.520;2023-03-31T16:50:38;11.60;;;3.45;;
75614;SDS011;64199;48.578;-4.520;2023-03-31T16:53:05;9.80;;;3.00;;
75614;SDS011;64199;48.578;-4.520;2023-03-31T16:55:32;10.02;;;3.15;;
75614;SDS011;64199;48.578;-4.520;2023-03-31T16:57:58;9.95;;;3.38;;
75614;SDS011;64199;48.578;-4.520;2023-03-31T17:00:31;8.23;;;2.60;;
75614;SDS011;64199;48.578;-4.520;2023-03-31T17:03:03;12.40;;;2.97;;
75614;SDS011;64199;48.578;-4.520;2023-03-31T17:05:30;6.60;;;2.42;;
75614;SDS011;64199;48.578;-4.520;2023-03-31T17:07:58;8.85;;;3.15;;
75614;SDS011;64199;48.578;-4.520;2023-03-31T17:10:25;8.02;;;2.53;;
75614;SDS011;64199;48.578;-4.520;2023-03-31T17:12:51;8.43;;;2.83;;
75614;SDS011;64199;48.578;-4.520;2023-03-31T17:15:17;8.55;;;2.92;;
75614;SDS011;64199;48.578;-4.520;2023-03-31T17:17:43;7.10;;;2.42;;
75614;SDS011;64199;48.578;-4.520;2023-03-31T17:20:10;7.13;;;2.75;;
75614;SDS011;64199;48.578;-4.520;2023-03-31T17:22:36;12.18;;;3.08;;
75614;SDS011;64199;48.578;-4.520;2023-03-31T17:25:02;8.38;;;2.72;;
75614;SDS011;64199;48.578;-4.520;2023-03-31T17:27:29;11.00;;;3.10;;
75614;SDS011;64199;48.578;-4.520;2023-03-31T17:29:56;10.18;;;3.30;;
75614;SDS011;64199;48.578;-4.520;2023-03-31T17:32:22;9.60;;;3.00;;
75614;SDS011;64199;48.578;-4.520;2023-03-31T17:34:48;8.73;;;3.10;;
75614;SDS011;64199;48.578;-4.520;2023-03-31T17:37:15;12.57;;;3.00;;
75614;SDS011;64199;48.578;-4.520;2023-03-31T17:39:42;13.18;;;3.33;;
75614;SDS011;64199;48.578;-4.520;2023-03-31T17:42:09;8.50;;;3.08;;
75614;SDS011;64199;48.578;-4.520;2023-03-31T17:44:37;12.13;;;3.30;;
75614;SDS011;64199;48.578;-4.520;2023-03-31T17:47:04;14.75;;;3.55;;
75614;SDS011;64199;48.578;-4.520;2023-03-31T17:49:30;8.65;;;3.15;;